Flight Track Log - Related Links

Times and Time Zones

All times are in EDT time to prevent confusion due to time zone crossing. See the SWA561 flight status page for this flight to view local times or setup timezone preferences in your user account.

Time Position Orientation Groundspeed Altitude Reporting Facility
EDT Latitude Longitude Course Direction KTS MPH feet Rate Location/Type
Fri 08:14:33 PM 37.7333 -122.2500 288° West 155 178 1,700  Level Northern TRACON
Fri 08:15:39 PM 37.7500 -122.3167 288° West 211 243 5,000 2,839 Climbing Northern TRACON
Fri 08:16:06 PM 37.7514 -122.3450 274° West 211 243 6,100 3,111 Climbing Oakland Center
Fri 08:16:33 PM 37.7333 -122.3833 239° Southwest 279 321 7,800 3,463 Climbing Northern TRACON
Fri 08:18:09 PM 37.6047 -122.4303 196° South 308 354 13,200 3,401 Climbing Oakland Center
Fri 08:19:10 PM 37.5214 -122.3808 155° Southeast 361 415 16,700 3,344 Climbing Oakland Center
Fri 08:20:11 PM 37.4558 -122.2831 130° Southeast 368 423 20,000 3,512 Climbing Oakland Center
Fri 08:21:13 PM 37.3822 -122.1894 135° Southeast 376 433 23,900 3,463 Climbing Oakland Center
Fri 08:22:14 PM 37.2942 -122.0739 134° Southeast 383 441 27,100 2,829 Climbing Oakland Center
Fri 08:23:16 PM 37.2178 -121.9731 134° Southeast 398 458 29,700 2,274 Climbing Oakland Center
Fri 08:24:18 PM 37.1397 -121.8700 134° Southeast 407 468 31,800 1,902 Climbing Oakland Center
Fri 08:25:19 PM 37.0569 -121.7653 135° Southeast 422 486 33,600 1,756 Climbing Oakland Center
Fri 08:26:21 PM 36.9731 -121.6581 134° Southeast 430 495 35,400 1,756 Climbing Oakland Center
Fri 08:27:22 PM 36.8903 -121.5489 133° Southeast 433 498 37,200 1,610 Climbing Oakland Center
Fri 08:28:24 PM 36.8003 -121.4308 134° Southeast 437 503 38,700 878 Climbing Oakland Center
Fri 08:29:25 PM 36.7139 -121.3233 135° Southeast 439 505 39,000 146 Climbing Oakland Center
Fri 08:30:27 PM 36.6281 -121.2128 134° Southeast 443 510 39,000  Level Oakland Center
Fri 08:31:28 PM 36.5417 -121.1044 135° Southeast 442 509 39,000  Level Oakland Center
Fri 08:32:29 PM 36.4567 -120.9931 133° Southeast 442 509 39,000  Level Oakland Center
Fri 08:33:31 PM 36.3522 -120.8600 134° Southeast 448 516 39,000  Level Oakland Center
Fri 08:34:32 PM 36.2653 -120.7500 134° Southeast 449 517 39,000  Level Oakland Center
Fri 08:35:34 PM 36.1775 -120.6383 134° Southeast 450 518 39,000  Level Oakland Center
Fri 08:36:35 PM 36.0897 -120.5278 134° Southeast 450 518 39,000  Level Oakland Center
Fri 08:37:37 PM 36.0017 -120.4172 135° Southeast 450 518 39,000  Level Oakland Center
Fri 08:38:38 PM 35.9131 -120.3097 135° Southeast 445 512 39,000  Level Oakland Center
Fri 08:39:39 PM 35.8256 -120.1989 134° Southeast 448 516 39,000  Level Oakland Center
Fri 08:40:41 PM 35.7372 -120.0906 135° Southeast 444 511 39,000  Level Oakland Center
Fri 08:41:42 PM 35.6483 -119.9800 135° Southeast 448 516 39,000  Level Oakland Center
Fri 08:42:44 PM 35.5453 -119.8892 144° Southeast 447 514 39,000  Level Oakland Center
Fri 08:43:45 PM 35.4411 -119.7997 145° Southeast 451 519 39,000  Level Oakland Center
Fri 08:44:47 PM 35.3181 -119.6947 145° Southeast 446 513 39,000 -634 Level Oakland Center
Fri 08:45:48 PM 35.2156 -119.6078 145° Southeast 447 514 37,700 -1,967 Descending Oakland Center
Fri 08:46:49 PM 35.1131 -119.5203 145° Southeast 447 514 35,000 -2,780 Descending Oakland Center
Fri 08:47:51 PM 35.0106 -119.4333 145° Southeast 447 514 32,000 -2,683 Descending Oakland Center
Fri 08:48:52 PM 34.9083 -119.3469 145° Southeast 447 514 29,500 -2,368 Descending Oakland Center
Fri 08:49:07 PM 34.8897 -119.3289 141° Southeast 447 514 29,000 -2,182 Descending Los Center
Fri 08:50:09 PM 34.7911 -119.2458 145° Southeast 435 501 26,700 -2,226 Descending Los Center
Fri 08:51:11 PM 34.6967 -119.1661 145° Southeast 418 481 24,400 -2,129 Descending Los Center
Fri 08:52:13 PM 34.6003 -119.0858 146° Southeast 404 465 22,300 -2,274 Descending Los Center
Fri 08:53:15 PM 34.4947 -118.9969 145° Southeast 380 437 19,700 -2,177 Descending Los Center
Fri 08:54:17 PM 34.4108 -118.9269 145° Southeast 368 423 17,800 -2,081 Descending Los Center
Fri 08:55:19 PM 34.3228 -118.8692 152° Southeast 356 410 15,400 -1,790 Descending Los Center
Fri 08:56:21 PM 34.2289 -118.8342 163° South 349 402 14,100 -1,258 Descending Los Center
Fri 08:57:23 PM 34.1442 -118.8031 163° South 319 367 12,800 -1,548 Descending Los Center
Fri 08:58:25 PM 34.0500 -118.7628 160° South 311 358 10,900 -1,355 Descending Los Center
Fri 08:59:27 PM 34.0306 -118.6717 104° East 281 323 10,000 -1,306 Descending Los Center
Fri 09:00:29 PM 34.0208 -118.5703 97° East 284 327 8,200 -1,452 Descending Los Center
Fri 09:01:31 PM 34.0119 -118.4769 97° East 279 321 7,000 -1,016 Descending Los Center
Fri 09:02:33 PM 34.0169 -118.3931 86° East 269 310 6,100 -1,210 Descending Los Center
Fri 09:03:35 PM 34.0264 -118.3053 83° East 265 305 4,500 -1,306 Descending Los Center
Fri 09:04:37 PM 34.0161 -118.2247 99° East 262 302 3,400 -823 Descending Los Center
Fri 09:05:39 PM 33.9706 -118.2606 213° Southwest 229 264 2,800 -823 Descending Los Center
Fri 09:06:41 PM 33.9606 -118.3219 259° West 174 200 1,700 -968 Descending Los Center
Fri 09:07:43 PM 33.9569 -118.3653 264° West 149 171 800 -774 Descending Los Center
Fri 09:08:45 PM 33.9525 -118.4047 262° West 132 152 100 -677 Descending Los Center
Fri 09:10:00 PM 33.9425 -118.4081 228° Southwest  Level Estimated
Fri 09:17:00 PM 33.9425 -118.4081 228° Southwest  Level Estimated

Login

Don't have an account? Register now (free) for customized features, flight alerts, and more!